Skip Navigation LinksHome page > Weather > Current weather Skip Navigation Links

Current Weather

New Tokyo International (Narita), Tokyo

For information only: do not use for flight planning or navigation.
Latest weather
Observation time Saturday, June 24, 2017 5:00 AM JST
Local time Saturday, June 24, 2017 5:34 AM JST
Flight conditions Low Instrument Meteorological Conditions
Winds
Wind direction South (170°)
Wind speed 5 mph
Visibility 6.2 mi.
Sky condition
Ceiling 0 ft. broken clouds
Cloud layer broken clouds 0 ft.
Cloud layer few clouds 3,000 ft.
Temperature 66°F
Dewpoint 66°F
Altimeter 29.77 in.Hg
Derived measurements
Relative humidity 100%
Density altitude 1090 ft.
Remarks
No significant changes expected in the next two hours.
METAR RJAA 232000Z 17004KT 9999 FEW030 BKN/// 19/19 Q1008 NOSIG RMK 1CU030 A2977

Settings

Location code

InnerDrive.Weather 4.0.6144.1 Release CLR 4.0.30319.36366
Copyright ©2015 Inner Drive Technology. All rights reserved. Portions Copyright ©1986-2015 David Braverman.

Find weather

Site navigation


Skip Navigation Links

Place info

Page info

PayPal - The safer, easier way to pay online!

Return home.

Copyright ©2017 Inner Drive Technology. Purveyors of fine, hand-crafted computer software. Page printed 2017-06-23T20:34:32 UTC.